createdAt,value
2024-04-30T00:01:01.489Z,98801.91
2024-04-30T00:03:31.084Z,98793.31
2024-04-30T00:06:00.614Z,98786.47
2024-04-30T00:08:30.084Z,98795.03
2024-04-30T00:10:57.103Z,98784.75
2024-04-30T00:13:23.903Z,98783.06
2024-04-30T00:15:53.519Z,98792.56
2024-04-30T00:18:20.278Z,98789.16
2024-04-30T00:20:49.603Z,98794.31
2024-04-30T00:23:19.182Z,98791.75
2024-04-30T00:25:48.494Z,98760.94
2024-04-30T00:28:15.307Z,98791.75
2024-04-30T00:30:44.918Z,98776.31
2024-04-30T00:33:11.679Z,98774.59
2024-04-30T00:35:40.997Z,98782.31
2024-04-30T00:38:07.721Z,98773.78
2024-04-30T00:40:39.813Z,98781.50
2024-04-30T00:43:06.584Z,98778.06
2024-04-30T00:45:35.968Z,98779.81
2024-04-30T00:48:06.175Z,98747.22
2024-04-30T00:50:34.385Z,98735.25
2024-04-30T00:53:05.518Z,98784.03
2024-04-30T00:55:32.552Z,98773.78
2024-04-30T00:58:05.018Z,98776.38
2024-04-30T01:00:31.798Z,98781.47
2024-04-30T01:03:01.337Z,98783.22
2024-04-30T01:05:28.276Z,98755.78
2024-04-30T01:07:57.568Z,98775.47
2024-04-30T01:10:25.042Z,98772.94
2024-04-30T01:12:56.964Z,98773.78
2024-04-30T01:15:26.421Z,98772.06
2024-04-30T01:17:55.995Z,98770.34
2024-04-30T01:20:22.792Z,98776.34
2024-04-30T01:22:54.716Z,98767.78
2024-04-30T01:25:21.705Z,98766.06
2024-04-30T01:27:51.032Z,98765.22
2024-04-30T01:30:17.767Z,98756.66
2024-04-30T01:32:47.234Z,98766.06
2024-04-30T01:35:14.515Z,98765.19
2024-04-30T01:37:43.843Z,98772.94
2024-04-30T01:40:13.885Z,98783.22
2024-04-30T01:42:43.204Z,98772.94
2024-04-30T01:45:10.183Z,98778.94
2024-04-30T01:47:39.884Z,98778.06
2024-04-30T01:50:07.421Z,98781.47
2024-04-30T01:52:36.804Z,98777.22
2024-04-30T01:55:03.874Z,98773.75
2024-04-30T01:57:35.962Z,98771.19
2024-04-30T02:00:02.746Z,98772.88
2024-04-30T02:02:32.333Z,98766.88
2024-04-30T02:05:02.247Z,98752.31
2024-04-30T02:07:34.359Z,98760.88
2024-04-30T02:10:01.217Z,98759.19
2024-04-30T02:12:30.633Z,98757.47
2024-04-30T02:14:59.990Z,98758.31
2024-04-30T02:17:29.895Z,98757.44
2024-04-30T02:19:56.757Z,98751.44
2024-04-30T02:22:26.488Z,98755.72
2024-04-30T02:24:53.500Z,98760.88
2024-04-30T02:27:23.053Z,98750.56
2024-04-30T02:29:50.274Z,98760.03
2024-04-30T02:32:38.026Z,98756.53
2024-04-30T02:35:07.770Z,98752.28
2024-04-30T02:37:37.185Z,98750.56
2024-04-30T02:40:07.157Z,98753.97
2024-04-30T02:42:36.566Z,98753.09
2024-04-30T02:45:03.783Z,98743.69
2024-04-30T02:47:35.899Z,98748.81
2024-04-30T02:50:02.665Z,98747.09
2024-04-30T02:52:32.143Z,98747.03
2024-04-30T02:54:59.166Z,98751.25
2024-04-30T02:57:28.816Z,98753.81
2024-04-30T02:59:55.540Z,98756.38
2024-04-30T03:02:24.917Z,98751.19
2024-04-30T03:04:54.884Z,98753.75
2024-04-30T03:07:24.302Z,98746.88
2024-04-30T03:09:51.311Z,98746.03
2024-04-30T03:12:20.636Z,98733.22
2024-04-30T03:14:47.830Z,98740.97
2024-04-30T03:17:17.580Z,98739.22
2024-04-30T03:19:46.942Z,98732.34
2024-04-30T03:22:16.668Z,98732.31
2024-04-30T03:24:45.971Z,98728.94
2024-04-30T03:27:12.750Z,98728.97
2024-04-30T03:29:44.247Z,98727.22
2024-04-30T03:32:10.957Z,98730.63
2024-04-30T03:34:40.509Z,98733.97
2024-04-30T03:37:09.833Z,98730.53
2024-04-30T03:39:41.888Z,98729.63
2024-04-30T03:42:12.238Z,98723.63
2024-04-30T03:44:42.216Z,98721.97
2024-04-30T03:47:11.837Z,98732.25
2024-04-30T03:49:41.609Z,98728.81
2024-04-30T03:52:11.033Z,98735.66
2024-04-30T03:54:40.638Z,98733.13
2024-04-30T03:57:10.278Z,98722.06
2024-04-30T03:59:37.048Z,98731.44
2024-04-30T04:02:06.998Z,98738.25
2024-04-30T04:04:33.875Z,98739.06
2024-04-30T04:07:03.552Z,98727.94
2024-04-30T04:09:30.313Z,98727.91
2024-04-30T04:12:18.364Z,98727.97
2024-04-30T04:14:52.142Z,98736.53
2024-04-30T04:17:22.948Z,98741.66
2024-04-30T04:19:52.687Z,98741.53
2024-04-30T04:22:22.361Z,98735.56
2024-04-30T04:24:49.359Z,98729.56
2024-04-30T04:27:21.553Z,98736.44
2024-04-30T04:29:48.584Z,98728.84
2024-04-30T04:32:18.161Z,98733.13
2024-04-30T04:34:44.924Z,98737.44
2024-04-30T04:37:14.512Z,98731.47
2024-04-30T04:39:41.253Z,98731.31
2024-04-30T04:42:11.018Z,98732.25
2024-04-30T04:44:40.355Z,98740.00
2024-04-30T04:47:09.882Z,98740.91
2024-04-30T04:49:37.100Z,98735.78
2024-04-30T04:52:07.020Z,98733.25
2024-04-30T04:54:34.079Z,98729.84
2024-04-30T04:57:03.420Z,98719.56
2024-04-30T04:59:30.830Z,98739.31
2024-04-30T05:02:03.080Z,98740.19
2024-04-30T05:04:30.042Z,98734.25
2024-04-30T05:07:01.894Z,98734.25
2024-04-30T05:09:29.282Z,98741.13
2024-04-30T05:11:58.822Z,98747.97
2024-04-30T05:14:25.581Z,98741.13
2024-04-30T05:16:55.329Z,98740.34
2024-04-30T05:19:24.862Z,98738.59
2024-04-30T05:21:54.445Z,98736.03
2024-04-30T05:24:21.169Z,98728.34
2024-04-30T05:26:50.747Z,98714.63
2024-04-30T05:29:18.032Z,98733.50
2024-04-30T05:31:47.388Z,98743.78
2024-04-30T05:34:14.152Z,98741.22
2024-04-30T05:36:46.303Z,98736.97
2024-04-30T05:39:13.134Z,98724.13
2024-04-30T05:41:42.487Z,98734.38
2024-04-30T05:44:09.539Z,98723.25
2024-04-30T05:46:38.959Z,98724.09
2024-04-30T05:49:05.820Z,98710.38
2024-04-30T05:51:35.259Z,98716.38
2024-04-30T05:54:04.898Z,98716.38
2024-04-30T05:56:34.474Z,98714.66
2024-04-30T05:59:03.936Z,98724.94
2024-04-30T06:01:30.743Z,98724.03
2024-04-30T06:04:00.171Z,98718.88
2024-04-30T06:06:27.058Z,98720.56
2024-04-30T06:08:57.703Z,98722.28
2024-04-30T06:11:27.418Z,98722.22
2024-04-30T06:13:56.966Z,98730.75
2024-04-30T06:16:23.795Z,98700.78
2024-04-30T06:18:53.168Z,98708.38
2024-04-30T06:21:30.611Z,98727.13
2024-04-30T06:24:01.276Z,98721.06
2024-04-30T06:26:30.592Z,98724.41
2024-04-30T06:28:59.895Z,98712.28
2024-04-30T06:31:26.771Z,98713.97
2024-04-30T06:33:56.218Z,98686.53
2024-04-30T06:36:23.280Z,98708.63
2024-04-30T06:38:52.577Z,98713.66
2024-04-30T06:41:19.628Z,98699.84
2024-04-30T06:43:51.542Z,98710.84
2024-04-30T06:46:18.331Z,98698.81
2024-04-30T06:48:48.937Z,98696.94
2024-04-30T06:51:16.278Z,98690.78
2024-04-30T06:53:45.847Z,98688.03
2024-04-30T06:56:12.615Z,98687.81
2024-04-30T06:58:42.230Z,98692.88
2024-04-30T07:01:11.605Z,98696.09
2024-04-30T07:03:40.965Z,98689.06
2024-04-30T07:06:07.743Z,98692.44
2024-04-30T07:08:37.059Z,98693.22
2024-04-30T07:11:04.337Z,98692.34
2024-04-30T07:13:33.769Z,98694.78
2024-04-30T07:16:00.743Z,98686.78
2024-04-30T07:18:33.256Z,98691.81
2024-04-30T07:21:02.936Z,98693.38
2024-04-30T07:23:29.779Z,98687.16
2024-04-30T07:25:59.058Z,98684.25
2024-04-30T07:28:26.695Z,98687.38
2024-04-30T07:30:56.200Z,98679.50
2024-04-30T07:33:23.200Z,98680.94
2024-04-30T07:35:55.189Z,98681.41
2024-04-30T07:38:22.406Z,98677.53
2024-04-30T07:40:51.958Z,98692.91
2024-04-30T07:43:19.092Z,98659.50
2024-04-30T07:45:48.439Z,98678.09
2024-04-30T07:48:15.641Z,98678.50
2024-04-30T07:50:44.980Z,98676.25
2024-04-30T07:53:14.315Z,98680.44
2024-04-30T07:55:44.049Z,98667.09
2024-04-30T07:58:11.249Z,98683.91
2024-04-30T08:04:37.629Z,98667.28
2024-04-30T08:07:04.894Z,98659.47
2024-04-30T08:09:36.880Z,98670.19
2024-04-30T08:12:04.466Z,98637.69
2024-04-30T08:14:36.090Z,98664.47
2024-04-30T08:17:03.839Z,98662.34
2024-04-30T08:19:33.608Z,98637.59
2024-04-30T08:22:00.462Z,98660.97
2024-04-30T08:24:30.055Z,98660.09
2024-04-30T08:26:59.486Z,98653.81
2024-04-30T08:29:28.819Z,98653.78
2024-04-30T08:31:56.339Z,98651.56
2024-04-30T08:34:25.777Z,98657.94
2024-04-30T08:36:52.866Z,98649.03
2024-04-30T08:39:22.196Z,98640.22
2024-04-30T08:41:49.556Z,98638.53
2024-04-30T08:44:23.363Z,98632.47
2024-04-30T08:46:52.744Z,98626.66
2024-04-30T08:49:33.718Z,98638.19
2024-04-30T08:52:06.140Z,98633.63
2024-04-30T08:54:37.015Z,98622.38
2024-04-30T08:57:04.555Z,98623.28
2024-04-30T08:59:38.758Z,98607.91
2024-04-30T09:02:07.141Z,98615.22
2024-04-30T09:04:39.121Z,98612.22
2024-04-30T09:07:06.833Z,98609.75
2024-04-30T09:09:36.300Z,98605.19
2024-04-30T09:12:04.461Z,98598.75
2024-04-30T09:14:45.569Z,98598.63
2024-04-30T09:17:12.552Z,98591.75
2024-04-30T09:19:42.250Z,98593.41
2024-04-30T09:22:09.375Z,98591.59
2024-04-30T09:24:49.284Z,98584.63
2024-04-30T09:27:16.258Z,98576.28
2024-04-30T09:29:48.220Z,98576.25
2024-04-30T09:32:22.005Z,98548.06
2024-04-30T09:34:54.244Z,98562.94
2024-04-30T09:37:22.429Z,98553.81
2024-04-30T09:39:58.372Z,98545.47
2024-04-30T09:42:28.551Z,98541.16
2024-04-30T09:45:03.848Z,98535.13
2024-04-30T09:47:33.615Z,98522.44
2024-04-30T09:50:05.280Z,98521.41
2024-04-30T09:52:35.819Z,98513.03
2024-04-30T09:55:06.530Z,98528.78
2024-04-30T09:57:39.299Z,98520.56
2024-04-30T10:00:11.558Z,98514.44
2024-04-30T10:02:46.328Z,98490.75
2024-04-30T10:05:19.045Z,98512.47
2024-04-30T10:07:50.710Z,98504.19
2024-04-30T10:10:27.374Z,98498.75
2024-04-30T10:12:54.257Z,98490.63
2024-04-30T10:15:33.434Z,98489.22
2024-04-30T10:18:00.482Z,98490.91
2024-04-30T10:20:30.176Z,98481.44
2024-04-30T10:22:57.618Z,98486.25
2024-04-30T10:25:27.716Z,98477.19
2024-04-30T10:28:05.692Z,98483.78
2024-04-30T10:30:38.518Z,98475.19
2024-04-30T10:33:06.007Z,98475.31
2024-04-30T10:35:42.832Z,98473.59
2024-04-30T10:38:12.391Z,98470.75
2024-04-30T10:40:39.508Z,98462.03
2024-04-30T10:43:11.071Z,98458.91
2024-04-30T10:45:40.459Z,98455.69
2024-04-30T10:48:12.367Z,98448.06
2024-04-30T10:50:41.892Z,98448.13
2024-04-30T10:53:11.097Z,98445.22
2024-04-30T10:55:43.060Z,98444.41
2024-04-30T10:58:13.624Z,98428.19
2024-04-30T11:00:49.216Z,98431.31
2024-04-30T11:03:22.549Z,98427.31
2024-04-30T11:06:01.585Z,98403.88
2024-04-30T11:08:28.748Z,98401.81
2024-04-30T11:11:09.784Z,98409.06
2024-04-30T11:13:36.661Z,98406.72
2024-04-30T11:16:14.234Z,98393.47
2024-04-30T11:18:43.390Z,98391.56
2024-04-30T11:21:12.791Z,98383.22
2024-04-30T11:23:39.589Z,98384.91
2024-04-30T11:26:08.914Z,98378.78
2024-04-30T11:28:35.724Z,98380.53
2024-04-30T11:31:08.091Z,98371.00
2024-04-30T11:33:35.111Z,98366.94
2024-04-30T11:36:04.969Z,98364.84
2024-04-30T11:38:34.722Z,98360.59
2024-04-30T11:41:01.594Z,98356.09
2024-04-30T11:43:31.014Z,98344.78
2024-04-30T11:45:57.960Z,98341.13
2024-04-30T11:48:30.343Z,98342.72
2024-04-30T11:50:57.343Z,98340.28
2024-04-30T11:53:26.855Z,98324.50
2024-04-30T11:55:53.718Z,98330.88
2024-04-30T11:58:23.239Z,98320.22
2024-04-30T12:00:50.370Z,98304.28
2024-04-30T12:03:19.959Z,98311.19
2024-04-30T12:05:52.079Z,98304.59
2024-04-30T12:08:18.982Z,98309.44
2024-04-30T12:10:48.647Z,98304.16
2024-04-30T12:13:15.846Z,98307.88
2024-04-30T12:15:45.227Z,98306.47
2024-04-30T12:18:12.327Z,98304.09
2024-04-30T12:20:41.959Z,98304.56
2024-04-30T12:23:11.639Z,98310.56
2024-04-30T12:25:41.029Z,98292.69
2024-04-30T12:28:07.988Z,98290.28
2024-04-30T12:30:37.359Z,98296.50
2024-04-30T12:33:04.673Z,98292.81
2024-04-30T12:35:35.974Z,98284.34
2024-04-30T12:38:02.800Z,98281.66
2024-04-30T12:40:35.522Z,98285.16
2024-04-30T12:43:02.540Z,98283.78
2024-04-30T12:45:32.176Z,98268.34
2024-04-30T12:47:59.314Z,98277.09
2024-04-30T12:50:29.139Z,98273.13
2024-04-30T12:52:56.025Z,98266.81
2024-04-30T12:55:25.517Z,98266.63
2024-04-30T12:57:55.113Z,98259.03
2024-04-30T13:00:24.524Z,98250.72
2024-04-30T13:02:51.425Z,98247.22
2024-04-30T13:05:20.951Z,98253.59
2024-04-30T13:07:48.614Z,98247.81
2024-04-30T13:10:41.416Z,98235.69
2024-04-30T13:13:10.880Z,98241.88
2024-04-30T13:15:40.241Z,98230.22
2024-04-30T13:18:07.099Z,98236.53
2024-04-30T13:20:38.476Z,98234.88
2024-04-30T13:23:05.377Z,98229.09
2024-04-30T13:25:34.770Z,98224.06
2024-04-30T13:28:02.195Z,98224.06
2024-04-30T13:30:34.233Z,98214.66
2024-04-30T13:33:01.126Z,98217.84
2024-04-30T13:35:31.146Z,98212.84
2024-04-30T13:37:57.999Z,98217.63
2024-04-30T13:40:27.907Z,98203.34
2024-04-30T13:42:57.361Z,98198.13
2024-04-30T13:45:24.174Z,98207.00
2024-04-30T13:47:56.184Z,98192.06
2024-04-30T13:50:23.298Z,98205.94
2024-04-30T13:52:52.682Z,98196.16
2024-04-30T13:55:19.618Z,98189.34
2024-04-30T13:57:49.520Z,98196.91
2024-04-30T14:00:16.648Z,98174.69
2024-04-30T14:02:47.975Z,98175.75
2024-04-30T14:05:17.573Z,98182.44
2024-04-30T14:07:48.003Z,98166.63
2024-04-30T14:10:15.055Z,98179.41
2024-04-30T14:12:46.326Z,98170.59
2024-04-30T14:15:15.953Z,98167.75
2024-04-30T14:17:43.418Z,98158.25
2024-04-30T14:20:13.216Z,98158.56
2024-04-30T14:22:43.990Z,98156.94
2024-04-30T14:25:13.807Z,98164.72
2024-04-30T14:27:40.595Z,98156.63
2024-04-30T14:30:11.462Z,98167.13
2024-04-30T14:32:38.307Z,98157.91
2024-04-30T14:35:08.344Z,98153.78
2024-04-30T14:37:35.230Z,98147.25
2024-04-30T14:40:07.827Z,98152.25
2024-04-30T14:42:34.624Z,98142.25
2024-04-30T14:45:04.143Z,98139.13
2024-04-30T14:47:31.039Z,98141.00
2024-04-30T14:50:00.556Z,98137.28
2024-04-30T14:52:27.780Z,98132.03
2024-04-30T14:54:58.060Z,98139.28
2024-04-30T14:57:27.828Z,98133.25
2024-04-30T14:59:57.451Z,98134.22
2024-04-30T15:02:24.227Z,98125.19
2024-04-30T15:04:53.957Z,98119.72
2024-04-30T15:07:20.862Z,98117.38
2024-04-30T15:09:56.207Z,98125.88
2024-04-30T15:12:23.087Z,98120.00
2024-04-30T15:14:55.442Z,98120.13
2024-04-30T15:17:22.969Z,98107.31
2024-04-30T15:19:54.297Z,98111.13
2024-04-30T15:22:21.412Z,98098.34
2024-04-30T15:24:50.780Z,98102.84
2024-04-30T15:27:17.779Z,98103.56
2024-04-30T15:29:47.310Z,98097.69
2024-04-30T15:32:17.026Z,98093.84
2024-04-30T15:34:46.457Z,98091.66
2024-04-30T15:37:13.295Z,98091.13
2024-04-30T15:39:44.405Z,98093.09
2024-04-30T15:42:11.323Z,98088.34
2024-04-30T15:44:41.305Z,98092.84
2024-04-30T15:47:08.346Z,98092.13
2024-04-30T15:49:41.126Z,98092.47
2024-04-30T15:52:08.199Z,98095.88
2024-04-30T15:54:37.603Z,98077.97
2024-04-30T15:57:05.309Z,98084.09
2024-04-30T15:59:35.679Z,98079.81
2024-04-30T16:02:03.194Z,98085.53
2024-04-30T16:04:32.829Z,98086.84
2024-04-30T16:07:02.515Z,98084.72
2024-04-30T16:09:31.881Z,98081.13
2024-04-30T16:11:58.648Z,98079.84
2024-04-30T16:14:28.058Z,98083.53
2024-04-30T16:16:54.969Z,98076.94
2024-04-30T16:19:24.565Z,98077.69
2024-04-30T16:21:54.501Z,98079.59
2024-04-30T16:24:27.129Z,98082.88
2024-04-30T16:26:55.333Z,98081.34
2024-04-30T16:29:24.723Z,98077.47
2024-04-30T16:31:51.509Z,98070.47
2024-04-30T16:34:20.896Z,98069.81
2024-04-30T16:36:47.941Z,98069.31
2024-04-30T16:39:17.409Z,98066.22
2024-04-30T16:41:46.893Z,98055.53
2024-04-30T16:44:16.254Z,98046.34
2024-04-30T16:46:43.093Z,98059.97
2024-04-30T16:49:12.543Z,98058.25
2024-04-30T16:51:39.373Z,98057.72
2024-04-30T16:54:09.067Z,98053.88
2024-04-30T16:56:39.587Z,98054.63
2024-04-30T16:59:11.555Z,98057.59
2024-04-30T17:01:40.970Z,98054.56
2024-04-30T17:04:10.931Z,98059.31
2024-04-30T17:06:47.583Z,98034.81
2024-04-30T17:09:16.823Z,98058.19
2024-04-30T17:11:46.704Z,98049.84
2024-04-30T17:14:16.288Z,98042.00
2024-04-30T17:16:46.310Z,98059.56
2024-04-30T17:19:13.444Z,98033.31
2024-04-30T17:21:46.876Z,98055.19
2024-04-30T17:24:14.529Z,98051.06
2024-04-30T17:26:48.130Z,98050.78
2024-04-30T17:29:20.215Z,98054.81
2024-04-30T17:31:49.728Z,98056.66
2024-04-30T17:34:19.774Z,98057.41
2024-04-30T17:36:49.998Z,98056.91
2024-04-30T17:39:20.213Z,98066.28
2024-04-30T17:41:47.028Z,98064.34
2024-04-30T17:44:16.460Z,98069.66
2024-04-30T17:46:45.853Z,98064.91
2024-04-30T17:49:15.824Z,98067.22
2024-04-30T17:51:43.274Z,98074.78
2024-04-30T17:54:12.768Z,98072.50
2024-04-30T17:56:42.991Z,98074.22
2024-04-30T17:59:10.248Z,98062.97
2024-04-30T18:01:39.742Z,98074.19
2024-04-30T18:04:09.356Z,98072.50
2024-04-30T18:06:38.841Z,98074.81
2024-04-30T18:09:07.131Z,98071.25
2024-04-30T18:11:36.766Z,98065.25
2024-04-30T18:14:03.874Z,98072.81
2024-04-30T18:16:34.166Z,98066.28
2024-04-30T18:19:01.273Z,98071.09
2024-04-30T18:21:35.752Z,98074.69
2024-04-30T18:24:04.270Z,98071.22
2024-04-30T18:26:33.814Z,98064.63
2024-04-30T18:29:00.602Z,98074.22
2024-04-30T18:31:31.105Z,98078.81
2024-04-30T18:33:58.280Z,98075.19
2024-04-30T18:36:27.900Z,98076.59
2024-04-30T18:38:57.558Z,98080.66
2024-04-30T18:41:31.152Z,98068.13
2024-04-30T18:43:59.118Z,98082.53
2024-04-30T18:46:28.694Z,98079.72
2024-04-30T18:48:55.871Z,98092.25
2024-04-30T18:51:25.689Z,98081.97
2024-04-30T18:53:52.507Z,98097.09
2024-04-30T18:56:24.651Z,98095.63
2024-04-30T18:58:51.477Z,98092.88
2024-04-30T19:01:21.519Z,98084.47
2024-04-30T19:03:51.499Z,98107.28
2024-04-30T19:06:22.709Z,98092.31
2024-04-30T19:08:49.733Z,98091.34
2024-04-30T19:11:20.029Z,98099.09
2024-04-30T19:13:49.958Z,98103.22
2024-04-30T19:16:19.368Z,98090.47
2024-04-30T19:18:46.337Z,98096.94
2024-04-30T19:21:16.223Z,98082.28
2024-04-30T19:23:43.670Z,98091.66
2024-04-30T19:26:17.396Z,98093.31
2024-04-30T19:28:44.470Z,98093.69
2024-04-30T19:31:23.311Z,98094.84
2024-04-30T19:33:50.367Z,98095.63
2024-04-30T19:36:22.142Z,98102.03
2024-04-30T19:38:49.996Z,98093.72
2024-04-30T19:41:21.097Z,98092.25
2024-04-30T19:43:48.027Z,98083.47
2024-04-30T19:46:21.348Z,98096.22
2024-04-30T19:48:52.524Z,98087.97
2024-04-30T19:51:23.248Z,98067.22
2024-04-30T19:53:51.447Z,98090.44
2024-04-30T19:56:21.505Z,98091.28
2024-04-30T19:58:51.728Z,98088.44
2024-04-30T20:01:24.561Z,98098.44
2024-04-30T20:03:57.708Z,98095.28
2024-04-30T20:06:25.625Z,98097.97
2024-04-30T20:08:55.141Z,98089.78
2024-04-30T20:11:25.037Z,98075.66
2024-04-30T20:13:56.425Z,98095.75
2024-04-30T20:16:25.368Z,98091.66
2024-04-30T20:18:57.990Z,98049.34
2024-04-30T20:21:25.575Z,98085.41
2024-04-30T20:23:55.354Z,98083.78
2024-04-30T20:26:22.247Z,98074.53
2024-04-30T20:28:51.599Z,98085.06
2024-04-30T20:31:21.052Z,98077.50
2024-04-30T20:33:47.847Z,98079.22
2024-04-30T20:36:22.939Z,98069.03
2024-04-30T20:38:49.970Z,98057.19
2024-04-30T20:41:19.512Z,98073.50
2024-04-30T20:43:46.863Z,98075.34
2024-04-30T20:46:16.568Z,98074.84
2024-04-30T20:48:46.203Z,98046.75
2024-04-30T20:51:15.919Z,98062.69
2024-04-30T20:53:47.147Z,98067.22
2024-04-30T20:56:16.557Z,98064.06
2024-04-30T20:58:43.322Z,98046.25
2024-04-30T21:01:17.172Z,98068.63
2024-04-30T21:03:44.607Z,98062.03
2024-04-30T21:06:14.317Z,98065.34
2024-04-30T21:08:41.090Z,98057.50
2024-04-30T21:11:17.066Z,98054.00
2024-04-30T21:13:43.971Z,98045.44
2024-04-30T21:16:13.886Z,98050.28
2024-04-30T21:18:41.085Z,98056.09
2024-04-30T21:21:10.716Z,98054.78
2024-04-30T21:23:39.731Z,98060.47
2024-04-30T21:26:10.558Z,98044.00
2024-04-30T21:28:43.691Z,98051.25
2024-04-30T21:31:10.757Z,98046.03
2024-04-30T21:33:43.647Z,98045.91
2024-04-30T21:36:11.596Z,98043.22
2024-04-30T21:38:41.002Z,98038.69
2024-04-30T21:41:08.068Z,98049.66
2024-04-30T21:43:37.467Z,98040.03
2024-04-30T21:46:07.148Z,98036.03
2024-04-30T21:52:24.070Z,98038.50
2024-04-30T21:54:50.891Z,98041.03
2024-04-30T21:57:20.396Z,98037.53
2024-04-30T21:59:47.171Z,98042.88
2024-04-30T22:02:19.366Z,98042.41
2024-04-30T22:04:46.750Z,98038.59
2024-04-30T22:07:20.808Z,98039.25
2024-04-30T22:09:48.474Z,98044.09
2024-04-30T22:12:18.346Z,98038.13
2024-04-30T22:14:45.469Z,98040.81
2024-04-30T22:17:15.067Z,98040.81
2024-04-30T22:19:44.430Z,98037.72
2024-04-30T22:22:14.035Z,98038.03
2024-04-30T22:24:41.117Z,98034.38
2024-04-30T22:27:10.623Z,98030.44
2024-04-30T22:29:37.349Z,98031.28
2024-04-30T22:32:08.934Z,98036.59
2024-04-30T22:34:35.975Z,98034.09
2024-04-30T22:37:07.979Z,98033.34
2024-04-30T22:39:35.023Z,98035.44
2024-04-30T22:42:04.377Z,98033.09
2024-04-30T22:44:34.050Z,98009.47
2024-04-30T22:47:00.828Z,98023.81
2024-04-30T22:49:31.866Z,98027.31
2024-04-30T22:51:58.729Z,98022.25
2024-04-30T22:54:30.736Z,98030.41
2024-04-30T22:56:57.721Z,98028.84
2024-04-30T22:59:27.151Z,98026.09
2024-04-30T23:01:54.078Z,98026.38
2024-04-30T23:04:23.557Z,98018.47
2024-04-30T23:06:50.384Z,98022.66
2024-04-30T23:09:19.814Z,98029.03
2024-04-30T23:11:49.506Z,98019.50
2024-04-30T23:14:19.081Z,98022.94
2024-04-30T23:16:45.860Z,98012.22
2024-04-30T23:19:15.541Z,98015.38
2024-04-30T23:21:42.371Z,98017.38
2024-04-30T23:24:12.015Z,98025.00
2024-04-30T23:26:39.044Z,98029.56
2024-04-30T23:29:10.972Z,98026.38
2024-04-30T23:31:37.764Z,98018.22
2024-04-30T23:34:07.373Z,98019.28
2024-04-30T23:36:34.168Z,98029.28
2024-04-30T23:39:03.744Z,98021.66
2024-04-30T23:41:30.631Z,98020.09
2024-04-30T23:44:00.017Z,98022.63
2024-04-30T23:46:29.479Z,98013.31
2024-04-30T23:48:59.230Z,98017.63
2024-04-30T23:51:26.126Z,98017.81
2024-04-30T23:53:55.732Z,98017.78
2024-04-30T23:56:22.862Z,98025.59
2024-04-30T23:58:52.230Z,98017.19
